Flight Track Log - Related Links

Times and Time Zones

All times are in EDT time to prevent confusion due to time zone crossing. See the UAL5900 flight status page for this flight to view local times or setup timezone preferences in your user account.

Time Position Orientation Groundspeed Altitude Reporting Facility
EDT Latitude Longitude Course Direction KTS MPH feet Rate Location/Type
Tue 06:51:01 PM 41.9833 -87.8667 176° South 166 191 2,400  Level Chicago TRACON
Tue 06:52:07 PM 41.9333 -87.8000 135° Southeast 225 259 4,500 1,286 Climbing Chicago TRACON
Tue 06:53:07 PM 41.8667 -87.7667 160° South 269 310 5,100 1,582 Climbing Chicago TRACON
Tue 06:55:09 PM 41.7269 -87.7592 178° South 257 296 9,300 1,836 Climbing Chicago Center
Tue 06:56:00 PM 41.5029 -87.7981 176° South  Level Estimated
Tue 06:56:10 PM 41.6522 -87.7419 170° South 269 310 10,700  Level Chicago Center
Tue 06:57:12 PM 41.5533 -87.7219 171° South 296 341 13,100 2,032 Climbing Chicago Center
Tue 06:58:14 PM 41.4728 -87.7247 181° South 289 333 14,900 1,452 Climbing Chicago Center
Tue 06:59:16 PM 41.3900 -87.7256 180° South 294 338 16,100 1,161 Climbing Chicago Center
Tue 07:00:18 PM 41.2992 -87.7261 180° South 319 367 17,300 1,161 Climbing Chicago Center
Tue 07:01:20 PM 41.2075 -87.7275 181° South 328 377 18,500 1,113 Climbing Chicago Center
Tue 07:02:22 PM 41.1147 -87.7275 180° South 331 381 19,600 1,065 Climbing Chicago Center
Tue 07:03:24 PM 41.0172 -87.7294 181° South 347 399 20,700 1,113 Climbing Chicago Center
Tue 07:04:26 PM 40.8947 -87.7314 181° South 365 420 21,900 1,065 Climbing Chicago Center
Tue 07:05:28 PM 40.7928 -87.7450 186° South 370 426 22,900 1,016 Climbing Chicago Center
Tue 07:06:30 PM 40.6900 -87.7436 179° South 375 432 24,000 1,024 Climbing Chicago Center
Tue 07:07:31 PM 40.5825 -87.7169 169° South 394 453 25,000 976 Climbing Chicago Center
Tue 07:08:33 PM 40.4775 -87.6836 166° South 392 451 26,000 968 Climbing Chicago Center
Tue 07:09:35 PM 40.3714 -87.6503 167° South 394 453 27,000 1,091 Climbing Chicago Center
Tue 07:09:50 PM 40.3358 -87.6394 167° South 390 449 27,400 1,161 Climbing Indianapolis Center
Tue 07:10:37 PM 40.2458 -87.6103 166° South 390 449 28,200 991 Climbing Chicago Center
Tue 07:11:39 PM 40.1394 -87.5975 175° South 385 443 29,200 935 Climbing Chicago Center
Tue 07:11:54 PM 40.1247 -87.5964 177° South 379 436 29,400 947 Climbing Indianapolis Center
Tue 07:12:55 PM 40.0178 -87.5817 174° South 383 441 30,400 1,122 Climbing Indianapolis Center
Tue 07:13:57 PM 39.8908 -87.5664 175° South 380 437 31,700 1,122 Climbing Indianapolis Center
Tue 07:14:58 PM 39.7833 -87.5522 174° South 384 442 32,700 976 Climbing Indianapolis Center
Tue 07:16:00 PM 39.6747 -87.5394 175° South 388 447 33,700 968 Climbing Indianapolis Center
Tue 07:17:02 PM 39.5675 -87.5253 174° South 387 445 34,700 634 Climbing Indianapolis Center
Tue 07:18:03 PM 39.4600 -87.5117 174° South 387 445 35,000 146 Climbing Indianapolis Center
Tue 07:19:05 PM 39.3486 -87.4983 175° South 399 459 35,000 -390 Level Indianapolis Center
Tue 07:20:06 PM 39.2372 -87.4844 174° South 400 460 34,200 -878 Descending Indianapolis Center
Tue 07:21:08 PM 39.1239 -87.4694 174° South 408 470 33,200 -585 Descending Indianapolis Center
Tue 07:22:09 PM 39.0108 -87.4564 175° South 406 467 33,000 -98 Descending Indianapolis Center
Tue 07:23:11 PM 38.9019 -87.4419 174° South 393 452 33,000  Level Indianapolis Center
Tue 07:24:12 PM 38.7736 -87.4267 175° South 386 444 33,000  Level Indianapolis Center
Tue 07:25:14 PM 38.6667 -87.4139 175° South 385 443 33,000  Level Indianapolis Center
Tue 07:26:15 PM 38.5586 -87.3956 172° South 391 450 33,000  Level Indianapolis Center
Tue 07:27:17 PM 38.4569 -87.3264 152° Southeast 410 472 33,000  Level Indianapolis Center
Tue 07:28:18 PM 38.3542 -87.2569 152° Southeast 420 483 33,000 -537 Level Indianapolis Center
Tue 07:29:20 PM 38.2503 -87.1872 152° Southeast 428 493 31,900 -1,366 Descending Indianapolis Center
Tue 07:30:21 PM 38.1208 -87.1125 156° South 436 502 30,200 -1,623 Descending Indianapolis Center
Tue 07:31:22 PM 38.0056 -87.0864 170° South 416 479 28,600 -1,512 Descending Indianapolis Center
Tue 07:32:24 PM 37.8981 -87.0614 170° South 405 466 27,100 -1,512 Descending Indianapolis Center
Tue 07:33:25 PM 37.7864 -87.0367 170° South 406 467 25,500 -1,512 Descending Indianapolis Center
Tue 07:34:27 PM 37.6733 -87.0119 170° South 409 471 24,000 -1,393 Descending Indianapolis Center
Tue 07:35:17 PM 37.5694 -86.9950 173° South 411 473 22,900 -1,200 Descending Memphis Center
Tue 07:36:17 PM 37.4639 -87.0100 186° South 393 452 21,800 -1,200 Descending Memphis Center
Tue 07:37:17 PM 37.3619 -87.0219 185° South 383 441 20,500 -1,300 Descending Memphis Center
Tue 07:38:17 PM 37.2686 -87.0364 187° South 378 435 19,200 -1,400 Descending Memphis Center
Tue 07:39:17 PM 37.1692 -87.0511 187° South 372 428 17,700 -1,500 Descending Memphis Center
Tue 07:40:17 PM 37.0736 -87.0628 186° South 359 413 16,200 -1,697 Descending Memphis Center
Tue 07:40:56 PM 36.9989 -87.0764 188° South 357 411 14,900 -1,800 Descending Memphis Center
Tue 07:41:17 PM 36.9739 -87.0772 182° South 359 413 14,400 -1,481 Descending Memphis Center
Tue 07:42:17 PM 36.8783 -87.0917 187° South 359 413 12,900 -1,550 Descending Memphis Center
Tue 07:43:17 PM 36.7864 -87.0797 174° South 344 396 11,300 -1,400 Descending Memphis Center
Tue 07:44:17 PM 36.7103 -87.0336 154° Southeast 315 362 10,100 -1,200 Descending Memphis Center
Tue 07:45:17 PM 36.6339 -86.9853 153° Southeast 287 330 8,900 -1,350 Descending Memphis Center
Tue 07:46:17 PM 36.5700 -86.9361 148° Southeast 275 316 7,400 -1,500 Descending Memphis Center
Tue 07:47:17 PM 36.5103 -86.8869 147° Southeast 262 302 5,900 -1,550 Descending Memphis Center
Tue 07:48:17 PM 36.4506 -86.8406 148° Southeast 256 295 4,300 -1,450 Descending Memphis Center
Tue 07:49:17 PM 36.3950 -86.7967 148° Southeast 251 289 3,000 -700 Descending Memphis Center
Tue 07:50:17 PM 36.3461 -86.7628 151° Southeast 241 277 2,900 -300 Descending Memphis Center
Tue 07:51:17 PM 36.2972 -86.7236 147° Southeast 223 257 2,400 -250 Descending Memphis Center
Tue 07:52:17 PM 36.2586 -86.6919 147° Southeast 185 213 2,400 -250 Level Memphis Center
Tue 07:53:17 PM 36.2203 -86.6628 148° Southeast 169 194 1,900 -500 Descending Memphis Center
Tue 07:54:17 PM 36.1744 -86.6622 179° South 151 174 1,400 -600 Descending Memphis Center
Tue 07:55:17 PM 36.1414 -86.6767 199° South 134 154 700 -350 Descending Memphis Center
Tue 07:56:17 PM 36.1081 -86.6781 182° South 134 154 700  Level Memphis Center
Tue 07:58:00 PM 36.1167 -86.6667 North  Level FlightAware Approximate
Tue 08:05:00 PM 36.1245 -86.6782 North  Level Estimated
Tue 08:06:00 PM 36.1245 -86.6782 North  Level Estimated
Tue 08:07:00 PM 36.1245 -86.6782 North  Level Estimated
Tue 08:08:00 PM 36.1245 -86.6782 North  Level Estimated
Tue 08:09:00 PM 36.1245 -86.6782 North  Level Estimated
Tue 08:10:00 PM 36.1245 -86.6782 North  Level Estimated
Tue 08:11:00 PM 36.1245 -86.6782 North  Level Estimated
Tue 08:12:00 PM 36.1245 -86.6782 North  Level Estimated

Login

Don't have an account? Register now (free) for customized features, flight alerts, and more!